Time;durP1;ratioP1;P1;durP2;ratioP2;P2;SDS_P1;SDS_P2;PMS_P1;PMS_P2;Temp;Humidity;BMP_temperature;BMP_pressure;BME280_temperature;BME280_humidity;BME280_pressure;Samples;Min_cycle;Max_cycle;Signal;HPM_P1;HPM_P2
2022/08/12 00:44:54;;;;;;;9.27;3.97;;;;;;;;;;4794809;29;20059;-78
2022/08/12 00:47:21;;;;;;;5.05;3.45;;;;;;;;;;4809125;29;20046;-81
2022/08/12 00:49:54;;;;;;;4.75;4.22;;;;;;;;;;4808758;29;20067;-80
2022/08/12 00:52:21;;;;;;;5.35;3.20;;;;;;;;;;4809986;29;20090;-78
2022/08/12 00:54:50;;;;;;;4.28;3.55;;;;;;;;;;4808955;29;20051;-80
2022/08/12 00:57:39;;;;;;;10.50;3.30;;;;;;;;;;4807971;29;20095;-83
2022/08/12 01:00:10;;;;;;;8.00;4.35;;;;;;;;;;4821857;29;20059;-79
2022/08/12 01:02:39;;;;;;;10.68;3.85;;;;;;;;;;4812400;29;20034;-79
2022/08/12 01:13:49;;;;;;;6.07;4.03;;;;;;;;;;4813169;29;20078;-78
2022/08/12 01:16:21;;;;;;;7.90;3.83;;;;;;;;;;4803844;29;20154;-81
2022/08/12 01:18:51;;;;;;;7.95;4.13;;;;;;;;;;4821073;29;20061;-78
2022/08/12 01:24:40;;;;;;;12.02;4.03;;;19.60;99.90;;;;;;4813635;29;20084;-80
2022/08/12 01:27:07;;;;;;;6.00;4.53;;;;;;;;;;4815207;29;20097;-78
2022/08/12 01:30:02;;;;;;;10.52;3.97;;;;;;;;;;4782468;29;20419;-78
2022/08/12 01:32:28;;;;;;;15.32;4.13;;;;;;;;;;4809590;29;20093;-78
2022/08/12 01:35:14;;;;;;;5.95;4.63;;;;;;;;;;4821380;29;20102;-77
2022/08/12 01:38:00;;;;;;;8.40;4.30;;;;;;;;;;4807603;29;20050;-80
2022/08/12 01:40:42;;;;;;;10.43;4.03;;;;;;;;;;4805647;29;20042;-79
2022/08/12 01:43:39;;;;;;;6.47;4.22;;;;;;;;;;4757476;30;20087;-79
2022/08/12 01:46:18;;;;;;;8.65;4.82;;;;;;;;;;4754276;30;20059;-78
2022/08/12 01:49:26;;;;;;;7.30;4.53;;;;;;;;;;4771016;30;20047;-79
2022/08/12 01:52:08;;;;;;;8.57;4.43;;;;;;;;;;4772724;30;20125;-80
2022/08/12 01:55:06;;;;;;;9.80;5.23;;;;;;;;;;4743058;30;20074;-79
2022/08/12 01:57:43;;;;;;;9.43;4.55;;;;;;;;;;4738690;30;20286;-80
2022/08/12 02:00:13;;;;;;;8.02;4.90;;;;;;;;;;4757220;30;20049;-92
2022/08/12 02:02:56;;;;;;;5.38;3.95;;;;;;;;;;4751888;30;20552;-85
2022/08/12 02:11:25;;;;;;;7.32;4.38;;;;;;;;;;4754373;30;20056;-89
2022/08/12 02:14:04;;;;;;;11.93;4.75;;;;;;;;;;4777559;29;20051;-78
2022/08/12 02:16:36;;;;;;;11.45;5.82;;;;;;;;;;4805256;29;20047;-84
2022/08/12 02:19:04;;;;;;;10.13;4.65;;;;;;;;;;4793505;29;20050;-78
2022/08/12 02:21:38;;;;;;;9.05;5.25;;;;;;;;;;4814418;29;20371;-82
2022/08/12 02:24:04;;;;;;;8.60;4.70;;;;;;;;;;4801399;29;20091;-81
2022/08/12 02:26:47;;;;;;;11.85;4.53;;;;;;;;;;4820973;29;20127;-77
2022/08/12 02:29:19;;;;;;;9.52;4.65;;;;;;;;;;4821843;29;20110;-77
2022/08/12 02:31:46;;;;;;;11.15;5.35;;;;;;;;;;4820354;29;20076;-83
2022/08/12 02:34:14;;;;;;;7.63;4.10;;;;;;;;;;4819829;29;20484;-89
2022/08/12 02:36:44;;;;;;;10.32;4.45;;;;;;;;;;4809154;29;20035;-80
2022/08/12 02:39:21;;;;;;;7.53;4.78;;;;;;;;;;4806481;29;20043;-77
2022/08/12 02:41:48;;;;;;;11.38;4.20;;;;;;;;;;4801849;29;20058;-90
2022/08/12 02:44:15;;;;;;;8.82;4.30;;;;;;;;;;4787004;29;20500;-78
2022/08/12 02:46:47;;;;;;;12.90;4.10;;;;;;;;;;4789767;29;20039;-79
2022/08/12 02:49:17;;;;;;;9.50;4.30;;;;;;;;;;4814919;29;20058;-82
2022/08/12 02:51:43;;;;;;;6.63;4.22;;;;;;;;;;4805802;29;20130;-79
2022/08/12 02:54:14;;;;;;;5.25;4.30;;;;;;;;;;4804292;29;20059;-78
2022/08/12 02:56:41;;;;;;;5.72;3.92;;;;;;;;;;4806441;29;20057;-84
2022/08/12 02:59:09;;;;;;;7.70;4.43;;;;;;;;;;4815106;29;20058;-85
2022/08/12 03:01:37;;;;;;;10.68;5.03;;;;;;;;;;4795638;29;20646;-88
2022/08/12 03:04:05;;;;;;;7.25;4.50;;;;;;;;;;4805769;29;20118;-89
2022/08/12 03:06:42;;;;;;;6.40;4.47;;;;;;;;;;4789601;29;20050;-77
2022/08/12 03:09:12;;;;;;;7.85;4.63;;;;;;;;;;4806527;29;20058;-80
2022/08/12 03:11:45;;;;;;;8.23;4.35;;;;;;;;;;4807480;29;20058;-78
2022/08/12 03:14:16;;;;;;;5.65;4.40;;;;;;;;;;4810638;29;20054;-81
2022/08/12 03:16:44;;;;;;;8.30;3.95;;;;;;;;;;4805968;29;20059;-83
2022/08/12 03:19:10;;;;;;;8.30;4.43;;;;;;;;;;4806281;29;20062;-78
2022/08/12 03:21:36;;;;;;;7.05;4.10;;;;;;;;;;4788442;29;20047;-83
2022/08/12 03:24:09;;;;;;;7.78;4.35;;;;;;;;;;4807156;29;20051;-79
2022/08/12 03:26:37;;;;;;;6.50;4.22;;;;;;;;;;4813382;29;20057;-78
2022/08/12 03:29:21;;;;;;;10.25;4.60;;;;;;;;;;4810024;29;20035;-78
2022/08/12 03:31:48;;;;;;;14.27;4.63;;;;;;;;;;4821220;29;20038;-81
2022/08/12 03:34:28;;;;;;;6.03;3.90;;;;;;;;;;4810489;29;20029;-83
2022/08/12 03:36:59;;;;;;;8.02;4.88;;;;;;;;;;4797015;29;20047;-84
2022/08/12 03:42:25;;;;;;;7.57;4.47;;;;;;;;;;4809874;29;20153;-78
2022/08/12 04:02:08;;;;;;;6.43;4.90;;;;;;;;;;4804379;29;20078;-80
2022/08/12 04:04:37;;;;;;;6.90;5.22;;;;;;;;;;4799780;29;20046;-81
2022/08/12 04:07:11;;;;;;;6.35;4.88;;;;;;;;;;4808509;29;20066;-78
2022/08/12 04:09:41;;;;;;;7.53;5.10;;;;;;;;;;4805555;29;20038;-78
2022/08/12 04:15:21;;;;;;;9.65;5.43;;;;;;;;;;4808107;29;20058;-79
2022/08/12 04:17:51;;;;;;;10.05;5.30;;;;;;;;;;4809808;29;20057;-77
2022/08/12 04:20:21;;;;;;;8.85;5.00;;;;;;;;;;4808676;29;20652;-79
2022/08/12 04:22:58;;;;;;;7.32;5.57;;;;;;;;;;4800766;29;20090;-79
2022/08/12 04:25:27;;;;;;;6.85;5.38;;;;;;;;;;4787866;29;20055;-78
2022/08/12 04:27:53;;;;;;;8.60;5.18;;;;;;;;;;4803393;29;20047;-83
2022/08/12 04:30:22;;;;;;;5.80;5.20;;;;;;;;;;4808480;29;20083;-87
2022/08/12 04:32:49;;;;;;;12.05;4.88;;;;;;;;;;4804325;29;20173;-78
2022/08/12 04:35:17;;;;;;;6.75;5.68;;;;;;;;;;4812285;29;20449;-90
2022/08/12 04:37:44;;;;;;;7.68;5.40;;;;;;;;;;4783244;29;20119;-85
2022/08/12 04:40:12;;;;;;;14.07;5.90;;;;;;;;;;4806644;29;20050;-78
2022/08/12 04:42:38;;;;;;;8.48;5.28;;;;;;;;;;4823983;29;20058;-80
2022/08/12 04:45:06;;;;;;;6.80;6.10;;;;;;;;;;4803991;29;20133;-77
2022/08/12 04:47:33;;;;;;;7.82;5.53;;;;;;;;;;4787530;29;20063;-80
2022/08/12 04:49:59;;;;;;;11.15;6.13;;;;;;;;;;4801712;29;20155;-80
2022/08/12 04:52:29;;;;;;;8.85;5.80;;;;;;;;;;4774423;29;20450;-77
2022/08/12 04:55:17;;;;;;;9.93;5.45;;;;;;;;;;4807875;29;20461;-78
2022/08/12 04:57:43;;;;;;;10.18;6.43;;;;;;;;;;4804627;29;20500;-77
2022/08/12 05:00:10;;;;;;;7.35;5.80;;;;;;;;;;4803893;29;20066;-79
2022/08/12 05:02:36;;;;;;;6.55;5.82;;;;;;;;;;4820793;29;20101;-79
2022/08/12 05:05:18;;;;;;;11.20;5.95;;;;;;;;;;4785816;29;20077;-77
2022/08/12 05:07:46;;;;;;;9.55;6.03;;;;;;;;;;4809152;29;20069;-78
2022/08/12 05:10:13;;;;;;;6.80;5.65;;;;;;;;;;4795289;29;20524;-80
2022/08/12 05:12:43;;;;;;;13.15;6.32;;;;;;;;;;4778690;29;20117;-83
2022/08/12 05:15:14;;;;;;;7.60;5.15;;;;;;;;;;4791757;29;20055;-79
2022/08/12 05:17:42;;;;;;;9.18;5.60;;;;;;;;;;4809340;29;20051;-88
2022/08/12 05:20:09;;;;;;;7.30;4.90;;;;;;;;;;4810136;29;20047;-78
2022/08/12 05:22:36;;;;;;;6.38;5.53;;;;;;;;;;4802450;29;20093;-78
2022/08/12 05:25:05;;;;;;;10.38;5.78;;;;;;;;;;4809233;29;20081;-78
2022/08/12 05:27:32;;;;;;;5.70;4.85;;;;;;;;;;4793779;29;20055;-84
2022/08/12 05:29:58;;;;;;;7.68;5.30;;;;;;;;;;4809052;29;20105;-78
2022/08/12 05:32:26;;;;;;;17.30;5.97;;;;;;;;;;4781567;29;20111;-76
2022/08/12 05:34:57;;;;;;;12.63;5.53;;;;;;;;;;4812459;29;20103;-77
2022/08/12 05:37:23;;;;;;;10.27;6.00;;;;;;;;;;4809946;29;20058;-77
2022/08/12 05:39:50;;;;;;;10.57;5.68;;;;;;;;;;4810501;29;20057;-77
2022/08/12 05:42:17;;;;;;;10.45;5.35;;;;;;;;;;4793754;29;20134;-77
2022/08/12 05:44:43;;;;;;;14.27;5.82;;;;;;;;;;4820530;29;20156;-77
2022/08/12 05:47:11;;;;;;;10.88;5.35;;;;;;;;;;4807855;29;20054;-82
2022/08/12 05:49:39;;;;;;;7.00;5.00;;;;;;;;;;4814583;29;20100;-77
2022/08/12 05:52:06;;;;;;;10.98;4.50;;;;;;;;;;4831338;29;20086;-77
2022/08/12 05:54:33;;;;;;;9.80;5.55;;;;;;;;;;4788674;29;20047;-76
2022/08/12 05:56:59;;;;;;;6.38;5.10;;;;;;;;;;4817086;29;20055;-77
2022/08/12 05:59:25;;;;;;;8.15;4.97;;;;;;;;;;4815917;29;20039;-80
2022/08/12 06:01:57;;;;;;;8.55;4.95;;;;;;;;;;4821290;29;20103;-77
2022/08/12 06:04:23;;;;;;;11.20;5.28;;;;;;;;;;4808769;29;20053;-77
2022/08/12 06:06:55;;;;;;;9.52;5.40;;;;;;;;;;4809059;29;20092;-77
2022/08/12 06:09:21;;;;;;;10.48;5.20;;;;;;;;;;4771343;29;20482;-82
2022/08/12 06:11:51;;;;;;;8.95;5.88;;;;;;;;;;4799281;29;20058;-77
2022/08/12 06:14:18;;;;;;;12.40;5.70;;;;;;;;;;4804951;29;20076;-77
2022/08/12 06:16:45;;;;;;;8.13;4.50;;;;;;;;;;4810692;29;20102;-77
2022/08/12 06:19:11;;;;;;;9.95;4.72;;;;;;;;;;4807545;29;20399;-78
2022/08/12 06:21:37;;;;;;;7.38;4.60;;;;;;;;;;4811633;29;20055;-77
2022/08/12 06:24:04;;;;;;;8.35;5.13;;;;;;;;;;4805127;29;20039;-77
2022/08/12 06:26:30;;;;;;;9.98;4.82;;;;;;;;;;4806200;29;20531;-78
2022/08/12 06:28:59;;;;;;;6.68;4.80;;;;;;;;;;4807186;29;20043;-81
2022/08/12 06:31:26;;;;;;;11.43;5.78;;;;;;;;;;4807845;29;20035;-85
2022/08/12 06:33:54;;;;;;;11.02;5.20;;;;;;;;;;4811109;29;20039;-86
2022/08/12 06:36:22;;;;;;;6.53;4.32;;;;;;;;;;4805742;29;20055;-79
2022/08/12 06:38:48;;;;;;;10.10;4.63;;;;;;;;;;4793291;29;20076;-81
2022/08/12 06:44:00;;;;;;;9.52;5.13;;;;;;;;;;4805324;29;20439;-77
2022/08/12 06:46:30;;;;;;;11.63;5.53;;;;;;;;;;4809424;29;20054;-77
2022/08/12 06:48:57;;;;;;;9.30;4.07;;;;;;;;;;4810560;29;20659;-81
2022/08/12 06:51:27;;;;;;;8.38;5.50;;;;;;;;;;4809084;29;20058;-79
2022/08/12 06:53:56;;;;;;;8.45;6.25;;;;;;;;;;4814620;29;20045;-76
2022/08/12 06:56:22;;;;;;;6.25;4.70;;;;;;;;;;4769357;29;20043;-78
2022/08/12 06:58:56;;;;;;;6.20;4.85;;;;;;;;;;4811929;29;20050;-78
2022/08/12 07:01:32;;;;;;;9.20;4.47;;;;;;;;;;4770550;29;20047;-86
2022/08/12 07:03:58;;;;;;;8.70;4.47;;;;;;;;;;4806293;29;20111;-88
2022/08/12 07:06:27;;;;;;;7.18;4.60;;;;;;;;;;4793857;29;20039;-87
2022/08/12 07:20:34;;;;;;;13.48;6.55;;;;;;;;;;4829508;29;20065;-85
2022/08/12 07:23:41;;;;;;;10.57;4.50;;;;;;;;;;4837428;29;20113;-86
2022/08/12 07:29:13;;;;;;;8.50;4.40;;;;;;;;;;4823318;29;20123;-86
2022/08/12 07:35:19;;;;;;;8.30;4.40;;;;;;;;;;4820672;24;20062;-87
2022/08/12 07:40:56;;;;;;;9.00;4.82;;;;;;;;;;4810767;29;20058;-85
2022/08/12 07:47:12;;;;;;;9.75;3.97;;;;;;;;;;4846328;24;20088;-88
2022/08/12 07:49:47;;;;;;;8.38;4.32;;;;;;;;;;4833969;29;20099;-86
2022/08/12 07:52:32;;;;;;;9.23;4.30;;;;;;;;;;4798657;29;20066;-86
2022/08/12 07:55:11;;;;;;;9.13;3.70;;;;;;;;;;4826727;29;20495;-83
2022/08/12 08:13:19;;;;;;;9.63;4.40;;;;;;;;;;4799156;29;20095;-84
2022/08/12 08:15:45;;;;;;;6.65;4.00;;;;;;;;;;4802757;29;20114;-83
2022/08/12 08:18:16;;;;;;;7.10;4.53;;;;;;;;;;4775491;29;20059;-82
2022/08/12 08:20:44;;;;;;;9.77;4.22;;;;;;;;;;4790611;29;20051;-83
2022/08/12 08:23:12;;;;;;;8.38;4.32;;;;;;;;;;4804869;29;20245;-84
2022/08/12 08:25:40;;;;;;;12.27;5.03;;;;;;;;;;4773751;29;20050;-83
2022/08/12 08:28:13;;;;;;;5.80;4.10;;;;;;;;;;4800234;29;20054;-83
2022/08/12 08:30:42;;;;;;;8.38;4.50;;;;;;;;;;4787743;29;20055;-84
2022/08/12 08:33:08;;;;;;;12.13;4.93;;;;;;;;;;4790885;29;20072;-83
2022/08/12 08:35:36;;;;;;;8.00;4.30;;;;;;;;;;4791756;29;20413;-86
2022/08/12 08:38:08;;;;;;;5.72;4.28;;;;;;;;;;4805469;29;20118;-84
2022/08/12 08:43:23;;;;;;;12.32;4.50;;;;;;;;;;4813429;29;20077;-83
2022/08/12 08:45:49;;;;;;;9.43;4.38;;;;;;;;;;4818958;29;20154;-83
2022/08/12 08:48:16;;;;;;;6.07;4.18;;;;;;;;;;4800117;29;20198;-83
2022/08/12 08:50:43;;;;;;;6.82;4.13;;;;;;;;;;4788768;29;20054;-85
2022/08/12 08:53:10;;;;;;;8.85;5.00;;;;;;;;;;4792480;29;20047;-85
2022/08/12 08:55:36;;;;;;;9.80;5.00;;;;;;;;;;4799327;29;20066;-83
2022/08/12 08:58:02;;;;;;;7.55;4.43;;;;;;;;;;4792761;29;20055;-81
2022/08/12 09:00:29;;;;;;;11.48;4.85;;;;;;;;;;4789483;29;20079;-83
2022/08/12 09:02:55;;;;;;;9.07;4.90;;;;;;;;;;4810441;29;20068;-82
2022/08/12 09:05:22;;;;;;;7.45;5.55;;;;;;;;;;4761057;29;20162;-82
2022/08/12 09:07:49;;;;;;;8.27;5.47;;;;;;;;;;4797076;29;20112;-83
2022/08/12 09:10:19;;;;;;;9.38;5.25;;;;;;;;;;4804529;29;20052;-83
2022/08/12 09:15:31;;;;;;;7.85;4.70;;;;;;;;;;4797992;29;20416;-82
2022/08/12 09:17:58;;;;;;;13.32;4.97;;;;;;;;;;4819829;29;20039;-84
2022/08/12 09:20:25;;;;;;;8.57;4.93;;;;;;;;;;4806439;29;20049;-83
2022/08/12 09:22:51;;;;;;;6.60;4.60;;;;;;;;;;4822556;29;20074;-83
2022/08/12 09:25:17;;;;;;;11.30;4.43;;;;;;;;;;4816550;29;20106;-83
2022/08/12 09:27:44;;;;;;;8.80;4.70;;;;;;;;;;4819219;29;20381;-83
2022/08/12 09:30:16;;;;;;;7.82;4.43;;;;;;;;;;4812783;29;20050;-82
2022/08/12 09:32:48;;;;;;;14.90;4.53;;;;;;;;;;4784799;29;20053;-82
2022/08/12 09:35:14;;;;;;;14.88;4.35;;;;;;;;;;4778446;29;20098;-82
2022/08/12 09:37:40;;;;;;;7.03;3.90;;;;;;;;;;4776942;29;20058;-82
2022/08/12 09:40:07;;;;;;;6.07;3.22;;;;;;;;;;4766702;30;20035;-82
2022/08/12 09:45:40;;;;;;;6.75;3.85;;;;;;;;;;4807519;29;20054;-82
2022/08/12 09:48:15;;;;;;;15.25;4.20;;;;;;;;;;4788423;29;20063;-83
2022/08/12 09:50:42;;;;;;;7.18;3.75;;;;;;;;;;4786236;29;20055;-82
2022/08/12 09:53:08;;;;;;;9.55;4.75;;;;;;;;;;4826141;29;20051;-83
2022/08/12 09:55:35;;;;;;;9.88;5.10;;;;;;;;;;4796515;29;20082;-83
2022/08/12 09:58:06;;;;;;;8.45;5.18;;;;;;;;;;4797730;29;20407;-82
2022/08/12 10:00:35;;;;;;;11.48;4.97;;;;;;;;;;4797138;29;20616;-82
2022/08/12 10:03:20;;;;;;;11.23;4.88;;;;;;;;;;4803883;29;20053;-84
2022/08/12 10:06:15;;;;;;;9.27;4.70;;;;;;;;;;4814159;29;20822;-83
2022/08/12 10:08:44;;;;;;;6.45;5.47;;;;;;;;;;4823962;29;20923;-86
2022/08/12 10:14:08;;;;;;;10.20;3.50;;;;;;;;;;4795734;29;20039;-83
2022/08/12 10:16:42;;;;;;;8.82;3.78;;;;;;;;;;4807066;29;20046;-81
2022/08/12 10:19:14;;;;;;;9.18;3.80;;;;;;;;;;4795679;29;20042;-83
2022/08/12 10:21:50;;;;;;;11.15;3.50;;;;;;;;;;4825424;29;20098;-83
2022/08/12 10:24:21;;;;;;;3.80;2.95;;;;;;;;;;4810720;29;20039;-83
2022/08/12 10:29:39;;;;;;;8.40;3.00;;;;;;;;;;4804419;29;20089;-84
2022/08/12 10:32:06;;;;;;;4.38;2.70;;;;;;;;;;4788504;29;20046;-81
2022/08/12 10:34:40;;;;;;;8.30;3.17;;;;;;;;;;4804207;29;20043;-81
2022/08/12 10:37:07;;;;;;;4.93;2.58;;;;;;;;;;4807856;29;20310;-83
2022/08/12 10:39:38;;;;;;;7.05;3.00;;;;;;;;;;4779164;29;20077;-82
2022/08/12 10:45:03;;;;;;;5.25;3.13;;;;;;;;;;4808098;29;20082;-81
2022/08/12 10:47:31;;;;;;;5.47;2.45;;;;;;;;;;4804506;29;20039;-82
2022/08/12 10:50:01;;;;;;;6.60;2.70;;;;;;;;;;4772257;30;20386;-83
2022/08/12 10:52:29;;;;;;;7.45;2.92;;;;;;;;;;4800812;29;20051;-83
2022/08/12 10:54:55;;;;;;;10.50;2.85;;;;;;;;;;4779267;29;20047;-82
2022/08/12 10:57:27;;;;;;;9.80;2.70;;;;;;;;;;4794674;29;20666;-82
2022/08/12 10:59:55;;;;;;;5.95;2.97;;;;;;;;;;4795818;29;20053;-82
2022/08/12 11:02:25;;;;;;;4.25;2.25;;;;;;;;;;4789301;29;20066;-83
2022/08/12 11:04:58;;;;;;;4.90;2.78;;;;;;;;;;4780498;29;20165;-82
2022/08/12 11:07:40;;;;;;;6.80;2.50;;;;;;;;;;4789403;29;20054;-84
2022/08/12 11:10:18;;;;;;;4.38;2.60;;;;;;;;;;4802197;29;20133;-82
2022/08/12 11:12:44;;;;;;;7.00;2.47;;;;;;;;;;4824734;29;20149;-84
2022/08/12 11:15:11;;;;;;;10.80;2.58;;;;;;;;;;4810763;29;20051;-82
2022/08/12 11:17:50;;;;;;;5.72;2.20;;;;;;;;;;4819207;29;20047;-82
2022/08/12 11:20:16;;;;;;;6.88;2.15;;;;;;;;;;4816701;29;20129;-86
2022/08/12 11:22:42;;;;;;;3.67;2.10;;;;;;;;;;4791962;29;20046;-83
2022/08/12 11:25:09;;;;;;;8.18;2.42;;;;;;;;;;4809862;29;20043;-84
2022/08/12 11:27:45;;;;;;;5.03;2.20;;;;;;;;;;4809256;29;20137;-83
2022/08/12 11:30:11;;;;;;;4.88;2.38;;;;;;;;;;4802353;29;20054;-84
2022/08/12 11:32:46;;;;;;;8.80;2.42;;;;;;;;;;4775697;29;20051;-83
2022/08/12 11:35:19;;;;;;;13.98;2.42;;;;;;;;;;4790721;29;21017;-82
2022/08/12 11:37:55;;;;;;;7.45;2.15;;;;;;;;;;4806847;29;20131;-82
2022/08/12 11:40:21;;;;;;;5.22;2.20;;;;;;;;;;4819123;29;20066;-84
2022/08/12 11:42:47;;;;;;;13.30;2.72;;;;;;;;;;4791612;29;20042;-85
2022/08/12 11:45:13;;;;;;;4.65;2.65;;;;;;;;;;4806081;29;20545;-84
2022/08/12 11:47:39;;;;;;;5.63;2.15;;;;;;;;;;4813284;29;20103;-82
2022/08/12 11:50:19;;;;;;;8.07;2.40;;;;;;;;;;4795037;29;20052;-83
2022/08/12 11:52:49;;;;;;;5.70;2.30;;;;;;;;;;4779651;29;20161;-82
2022/08/12 11:55:15;;;;;;;3.97;2.38;;;;;;;;;;4801364;29;20070;-83
2022/08/12 11:57:56;;;;;;;4.82;2.30;;;;;;;;;;4793488;29;20058;-81
2022/08/12 12:00:23;;;;;;;9.70;2.17;;;;;;;;;;4791530;29;20047;-86
2022/08/12 12:03:04;;;;;;;6.82;2.60;;;;;;;;;;4789706;29;20038;-83
2022/08/12 12:05:39;;;;;;;7.55;2.28;;;;;;;;;;4782486;29;20449;-82
2022/08/12 12:08:05;;;;;;;8.18;3.03;;;;;;;;;;4788180;29;20108;-86
2022/08/12 12:10:36;;;;;;;7.07;2.13;;;;;;;;;;4805411;29;20051;-82
2022/08/12 12:13:15;;;;;;;6.28;2.20;;;;;;;;;;4773843;29;20062;-82
2022/08/12 12:15:41;;;;;;;5.05;2.67;;;;;;;;;;4779380;29;20054;-83
2022/08/12 12:18:41;;;;;;;10.75;2.50;;;;;;;;;;4812900;29;20047;-84
2022/08/12 12:21:08;;;;;;;6.43;2.42;;;;;;;;;;4797143;29;20066;-84
2022/08/12 12:23:34;;;;;;;3.38;2.10;;;;;;;;;;4810631;29;20076;-83
2022/08/12 12:26:01;;;;;;;5.25;2.20;;;;;;;;;;4815353;29;20437;-83
2022/08/12 12:28:28;;;;;;;4.03;2.13;;;;;;;;;;4797896;29;20031;-83
2022/08/12 12:30:54;;;;;;;5.68;2.20;;;;;;;;;;4814881;29;20074;-82
2022/08/12 12:33:20;;;;;;;5.60;2.30;;;;;;;;;;4794154;29;20050;-82
2022/08/12 12:35:46;;;;;;;10.95;2.50;;;;;;;;;;4802956;29;20542;-82
2022/08/12 12:38:13;;;;;;;7.53;2.75;;;;;;;;;;4807486;29;20555;-83
2022/08/12 12:40:43;;;;;;;8.40;2.22;;;;;;;;;;4807635;29;20051;-83
2022/08/12 12:43:10;;;;;;;8.15;2.80;;;;;;;;;;4806205;29;20130;-82
2022/08/12 12:45:47;;;;;;;12.35;2.30;;;;;;;;;;4813413;29;20054;-83
2022/08/12 12:48:31;;;;;;;7.43;2.42;;;;;;;;;;4815219;29;20049;-84
2022/08/12 12:54:22;;;;;;;5.70;2.10;;;;;;;;;;4813741;29;20063;-83
2022/08/12 12:56:53;;;;;;;5.60;2.40;;;;;;;;;;4814526;29;20046;-83
2022/08/12 12:59:32;;;;;;;7.38;2.38;;;;;;;;;;4796380;29;20088;-83
2022/08/12 13:04:55;;;;;;;6.53;2.03;;;;;;;;;;4803321;29;20058;-83
2022/08/12 13:07:21;;;;;;;11.68;2.05;;;;;;;;;;4806208;29;20047;-84
2022/08/12 13:09:47;;;;;;;10.60;2.47;;;;;;;;;;4770911;29;20596;-82
2022/08/12 13:12:23;;;;;;;7.10;2.10;;;;;;;;;;4776075;29;20067;-83
2022/08/12 13:14:49;;;;;;;4.95;2.08;;;;;;;;;;4796636;29;20055;-83
2022/08/12 13:17:20;;;;;;;9.27;2.08;;;;;;;;;;4792940;29;20066;-82
2022/08/12 13:19:49;;;;;;;5.75;2.03;;;;;;;;;;4808784;29;20081;-83
2022/08/12 13:22:29;;;;;;;8.88;2.10;;;;;;;;;;4797618;29;20054;-83
2022/08/12 13:25:01;;;;;;;4.15;1.92;;;;;;;;;;4786243;29;20062;-83
2022/08/12 13:27:28;;;;;;;6.97;2.30;;;;;;;;;;4776849;29;20427;-84
2022/08/12 13:30:20;;;;;;;5.40;2.42;;;;;;;;;;4810085;29;20377;-83
2022/08/12 13:33:09;;;;;;;5.13;2.42;;;;;;;;;;4791895;29;20054;-83
2022/08/12 13:36:03;;;;;;;10.02;2.45;;;;;;;;;;4771834;30;20145;-81
2022/08/12 13:38:37;;;;;;;4.40;2.05;;;;;;;;;;4773243;30;20057;-83
2022/08/12 13:41:31;;;;;;;4.85;2.45;;;;;;;;;;4806902;29;20062;-83
2022/08/12 13:44:12;;;;;;;8.35;2.40;;;;;;;;;;4794289;29;20090;-84
2022/08/12 13:46:41;;;;;;;8.80;2.70;;;;;;;;;;4757928;30;20437;-84
2022/08/12 13:49:14;;;;;;;6.82;2.15;;;;;;;;;;4758189;30;20067;-84
2022/08/12 13:51:51;;;;;;;6.78;2.45;;;;;;;;;;4777776;29;20063;-82
2022/08/12 13:54:19;;;;;;;5.40;2.30;;;;;;;;;;4789543;29;20130;-83
2022/08/12 13:56:57;;;;;;;5.90;2.35;;;;;;;;;;4768860;30;20055;-83
2022/08/12 13:59:23;;;;;;;8.20;2.20;;;;;;;;;;4761350;29;20139;-84
2022/08/12 14:01:50;;;;;;;5.78;2.83;;;;;;;;;;4774110;30;20142;-83
2022/08/12 14:04:17;;;;;;;6.55;2.50;;;;;;;;;;4796772;29;20047;-82
2022/08/12 14:07:06;;;;;;;4.25;2.20;;;;;;;;;;4766577;30;20074;-85
2022/08/12 14:10:34;;;;;;;4.35;2.10;;;;;;;;;;4777108;29;20444;-83
2022/08/12 14:12:45;;;;;;;7.60;3.03;;;;;;;;;;4733099;29;20186;-84
2022/08/12 14:15:13;;;;;;;4.97;2.45;;;;;;;;;;4782728;29;20130;-84
2022/08/12 14:17:48;;;;;;;7.18;2.47;;;;;;;;;;4798023;29;20047;-82
2022/08/12 14:23:17;;;;;;;6.32;1.88;;;;;;;;;;4788363;29;20050;-83
2022/08/12 14:25:47;;;;;;;4.85;2.03;;;;;;;;;;4770989;29;20043;-83
2022/08/12 14:28:15;;;;;;;7.03;2.10;;;;;;;;;;4819309;29;20042;-81
2022/08/12 14:30:52;;;;;;;4.82;2.13;;;;;;;;;;4813481;29;20053;-83
2022/08/12 14:33:32;;;;;;;5.03;2.17;;;;;;;;;;4809719;29;20069;-84
2022/08/12 14:36:03;;;;;;;5.13;2.35;;;;;;;;;;4816542;29;20416;-82
2022/08/12 14:38:36;;;;;;;12.75;2.20;;;;;;;;;;4813191;29;20088;-84
2022/08/12 14:41:26;;;;;;;8.57;2.65;;;;;;;;;;4802201;29;20059;-84
2022/08/12 14:44:14;;;;;;;10.48;2.20;;;;;;;;;;4817961;29;20062;-82
2022/08/12 14:46:42;;;;;;;8.20;2.60;;;;;;;;;;4808594;29;20058;-83
2022/08/12 14:49:36;;;;;;;5.32;2.40;;;;;;;;;;4816945;29;20054;-85
2022/08/12 14:52:42;;;;;;;8.50;2.20;;;32.90;99.90;;;;;;4805897;29;20042;-85
2022/08/12 14:55:14;;;;;;;5.30;2.30;;;;;;;;;;4806819;29;20059;-86
2022/08/12 14:57:54;;;;;;;7.72;2.00;;;;;;;;;;4793876;29;20058;-83
2022/08/12 15:03:26;;;;;;;2.55;1.73;;;;;;;;;;4804835;29;20548;-84
2022/08/12 15:06:08;;;;;;;6.45;2.00;;;;;;;;;;4806192;29;20055;-83
2022/08/12 15:08:37;;;;;;;5.07;2.10;;;;;;;;;;4799842;29;20043;-83
2022/08/12 15:11:04;;;;;;;4.72;2.05;;;;;;;;;;4821209;29;20065;-84
2022/08/12 15:13:34;;;;;;;4.53;2.08;;;;;;;;;;4813673;29;20066;-83
2022/08/12 15:16:46;;;;;;;10.32;1.95;;;;;;;;;;4805861;29;20051;-83
2022/08/12 15:19:12;;;;;;;4.97;1.85;;;;;;;;;;4803260;29;20485;-84
2022/08/12 15:21:47;;;;;;;6.88;2.13;;;;;;;;;;4806355;29;20173;-84
2022/08/12 15:24:13;;;;;;;4.57;2.05;;;;;;;;;;4801195;29;20042;-83
2022/08/12 15:26:42;;;;;;;5.38;1.95;;;;;;;;;;4761679;29;20095;-84
2022/08/12 15:29:16;;;;;;;3.08;1.90;;;;;;;;;;4797156;29;20137;-85
2022/08/12 15:31:43;;;;;;;14.32;1.88;;;;;;;;;;4812727;29;20121;-85
2022/08/12 15:34:14;;;;;;;8.75;2.00;;;;;;;;;;4820905;29;20057;-85
2022/08/12 15:36:55;;;;;;;7.30;1.90;;;;;;;;;;4809540;29;20084;-83
2022/08/12 15:39:44;;;;;;;6.32;1.90;;;;;;;;;;4800836;29;20081;-84
2022/08/12 15:42:25;;;;;;;5.93;1.88;;;;;;;;;;4795160;29;20043;-84
2022/08/12 15:44:53;;;;;;;5.90;2.10;;;;;;;;;;4791230;29;20141;-84
2022/08/12 15:47:29;;;;;;;4.45;2.40;;;;;;;;;;4780856;29;20111;-86
2022/08/12 15:56:09;;;;;;;5.40;1.58;;;;;;;;;;4813590;29;20114;-85
2022/08/12 15:58:51;;;;;;;3.60;1.70;;;;;;;;;;4820698;29;20050;-84
2022/08/12 16:01:18;;;;;;;7.38;1.77;;;;;;;;;;4812687;29;20058;-85
2022/08/12 16:03:58;;;;;;;12.13;1.80;;;;;;;;;;4796665;29;20060;-84
2022/08/12 16:07:02;;;;;;;5.45;1.60;;;;;;;;;;4797595;29;20069;-85
2022/08/12 16:09:37;;;;;;;3.55;1.83;;;;;;;;;;4809305;29;20112;-85
2022/08/12 16:12:03;;;;;;;5.00;2.00;;;;;;;;;;4791378;29;20054;-85
2022/08/12 16:17:57;;;;;;;9.07;2.35;;;;;;;;;;4802078;29;20081;-86
2022/08/12 16:24:06;;;;;;;6.80;2.00;;;;;;;;;;4826120;29;20045;-86
2022/08/12 16:26:34;;;;;;;7.13;2.45;;;;;;;;;;4791631;29;20416;-84
2022/08/12 16:29:03;;;;;;;5.68;1.80;;;;;;;;;;4799096;29;20038;-87
2022/08/12 16:31:29;;;;;;;9.35;2.38;;;;;;;;;;4782225;29;20521;-84
2022/08/12 16:33:58;;;;;;;3.85;1.95;;;;;;;;;;4818555;29;20047;-84
2022/08/12 16:42:08;;;;;;;7.55;2.13;;;;;;;;;;4827478;24;20054;-85
2022/08/12 16:45:18;;;;;;;9.30;1.98;;;;;;;;;;4812893;24;20058;-84
2022/08/12 16:50:26;;;;;;;7.57;2.22;;;;;;;;;;4812374;24;20352;-83
2022/08/12 17:03:14;;;;;;;13.15;1.90;;;;;;;;;;4831300;23;20113;-84
2022/08/12 17:09:01;;;;;;;5.90;1.73;;;;;;;;;;4781783;29;20070;-83
2022/08/12 17:11:27;;;;;;;4.45;1.85;;;;;;;;;;4799327;29;20058;-82
2022/08/12 17:14:02;;;;;;;5.60;1.90;;;;;;;;;;4798826;24;21184;-82
2022/08/12 17:16:36;;;;;;;5.70;1.98;;;;;;;;;;4800566;29;20043;-80
2022/08/12 17:19:08;;;;;;;8.77;2.00;;;;;;;;;;4805468;29;20572;-81
2022/08/12 17:21:48;;;;;;;3.78;1.83;;;;;;;;;;4804734;29;20408;-81
2022/08/12 17:24:18;;;;;;;5.28;1.88;;;;;;;;;;4800916;29;20044;-81
2022/08/12 17:26:44;;;;;;;5.05;2.00;;;;;;;;;;4808950;29;20146;-81
2022/08/12 17:29:10;;;;;;;6.20;2.05;;;;;;;;;;4806183;29;20130;-81
2022/08/12 17:31:43;;;;;;;9.25;1.83;;;;;;;;;;4809336;29;20045;-82
2022/08/12 17:35:25;;;;;;;8.27;1.77;;;;;;;;;;4788109;29;20080;-81
2022/08/12 17:37:14;;;;;;;18.23;2.53;;;;;;;;;;4834030;23;20154;-83
2022/08/12 17:42:47;;;;;;;9.48;2.20;;;;;;;;;;4843372;23;20065;-83
2022/08/12 17:45:16;;;;;;;9.25;2.00;;;;;;;;;;4817306;29;20154;-82
2022/08/12 17:50:59;;;;;;;9.23;2.20;;;;;;;;;;4808299;29;20035;-84
2022/08/12 17:53:43;;;;;;;;;;;;;;;;;;4805563;29;20074;-82
2022/08/12 17:56:10;;;;;;;4.18;1.50;;;;;;;;;;4828530;29;19932;-83
2022/08/12 17:58:37;;;;;;;8.30;2.20;;;;;;;;;;4831223;29;20045;-80
2022/08/12 18:01:04;;;;;;;6.38;1.77;;;;;;;;;;4829912;29;20416;-79
2022/08/12 18:03:32;;;;;;;7.10;1.77;;;;;;;;;;4830404;29;20059;-79
2022/08/12 18:06:40;;;;;;;8.20;1.90;;;;;;;;;;4832109;29;20121;-80
2022/08/12 18:09:14;;;;;;;7.07;2.15;;;;;;;;;;4799759;29;20065;-82
2022/08/12 18:14:29;;;;;;;8.13;1.90;;;;;;;;;;4821980;29;20085;-81
2022/08/12 18:16:57;;;;;;;4.28;2.15;;;;;;;;;;4793860;29;20058;-81
2022/08/12 18:19:23;;;;;;;4.80;1.88;;;;;;;;;;4813785;29;20059;-79
2022/08/12 18:21:51;;;;;;;6.53;1.80;;;;;;;;;;4818149;29;20126;-80
2022/08/12 18:24:18;;;;;;;11.50;2.72;;;;;;;;;;4809400;29;20065;-79
2022/08/12 18:26:48;;;;;;;14.38;2.50;;;;;;;;;;4820006;29;20054;-78
2022/08/12 18:29:14;;;;;;;16.02;4.25;;;;;;;;;;4812205;29;20047;-80
2022/08/12 18:31:41;;;;;;;10.00;3.00;;;;;;;;;;4821415;29;20043;-79